createdAt,value
2022-08-17T00:00:34.648Z,44.43
2022-08-17T00:03:25.734Z,44.53
2022-08-17T00:05:59.805Z,44.38
2022-08-17T00:08:39.738Z,44.84
2022-08-17T00:11:11.820Z,44.99
2022-08-17T00:13:48.104Z,45.43
2022-08-17T00:16:56.185Z,45.52
2022-08-17T00:19:24.813Z,45.55
2022-08-17T00:22:32.890Z,45.53
2022-08-17T00:24:43.741Z,45.54
2022-08-17T00:27:10.808Z,45.54
2022-08-17T00:29:38.389Z,45.52
2022-08-17T00:33:16.011Z,45.79
2022-08-17T00:34:53.076Z,45.70
2022-08-17T00:37:20.501Z,45.90
2022-08-17T00:39:47.746Z,46.04
2022-08-17T00:42:19.316Z,45.90
2022-08-17T00:44:46.987Z,46.45
2022-08-17T00:47:14.120Z,46.13
2022-08-17T00:49:41.205Z,45.75
2022-08-17T00:52:17.238Z,46.35
2022-08-17T00:54:50.185Z,46.53
2022-08-17T00:57:40.689Z,47.13
2022-08-17T01:00:33.316Z,46.91
2022-08-17T01:03:22.043Z,47.06
2022-08-17T01:05:54.241Z,46.79
2022-08-17T01:08:26.576Z,46.62
2022-08-17T01:11:01.815Z,47.18
2022-08-17T01:13:41.601Z,47.07
2022-08-17T01:16:31.158Z,47.43
2022-08-17T01:19:03.314Z,47.67
2022-08-17T01:22:14.432Z,47.58
2022-08-17T01:24:47.345Z,47.32
2022-08-17T01:27:18.499Z,47.03
2022-08-17T01:29:53.092Z,47.48
2022-08-17T01:32:20.952Z,47.26
2022-08-17T01:34:50.205Z,47.40
2022-08-17T01:37:21.552Z,47.99
2022-08-17T01:40:00.715Z,47.98
2022-08-17T01:42:38.046Z,47.78
2022-08-17T01:45:18.972Z,48.35
2022-08-17T01:47:46.230Z,47.94
2022-08-17T01:50:31.935Z,48.13
2022-08-17T01:53:07.913Z,48.24
2022-08-17T01:55:44.517Z,48.82
2022-08-17T01:58:11.926Z,48.25
2022-08-17T02:00:59.411Z,48.29
2022-08-17T02:03:29.629Z,48.96
2022-08-17T02:05:57.556Z,48.89
2022-08-17T02:08:39.164Z,48.91
2022-08-17T02:11:17.830Z,49.10
2022-08-17T02:13:49.525Z,48.97
2022-08-17T02:16:26.953Z,49.29
2022-08-17T02:19:10.854Z,50.18
2022-08-17T02:21:40.452Z,49.69
2022-08-17T02:24:12.417Z,49.48
2022-08-17T02:26:39.621Z,49.27
2022-08-17T02:29:07.347Z,49.28
2022-08-17T02:31:35.667Z,49.21
2022-08-17T02:34:04.778Z,49.68
2022-08-17T02:36:36.555Z,49.06
2022-08-17T02:39:08.666Z,49.57
2022-08-17T02:41:36.970Z,49.35
2022-08-17T02:44:06.288Z,49.73
2022-08-17T02:46:34.113Z,49.79
2022-08-17T02:49:01.405Z,49.78
2022-08-17T02:51:29.448Z,49.56
2022-08-17T02:54:02.187Z,49.72
2022-08-17T02:56:44.381Z,50.09
2022-08-17T02:59:11.507Z,49.58
2022-08-17T03:01:38.752Z,49.97
2022-08-17T03:04:07.021Z,50.09
2022-08-17T03:06:34.057Z,49.61
2022-08-17T03:09:01.325Z,49.67
2022-08-17T03:11:28.784Z,50.18
2022-08-17T03:13:55.916Z,50.40
2022-08-17T03:16:23.548Z,50.23
2022-08-17T03:18:50.869Z,49.87
2022-08-17T03:21:18.002Z,50.42
2022-08-17T03:23:45.309Z,50.41
2022-08-17T03:26:15.614Z,50.56
2022-08-17T03:28:43.636Z,50.15
2022-08-17T03:31:10.805Z,50.28
2022-08-17T03:33:38.204Z,50.49
2022-08-17T03:36:06.900Z,50.78
2022-08-17T03:38:39.433Z,50.70
2022-08-17T03:41:07.368Z,50.32
2022-08-17T03:43:34.798Z,50.92
2022-08-17T03:46:34.138Z,51.05
2022-08-17T03:49:24.098Z,50.99
2022-08-17T03:52:11.940Z,51.31
2022-08-17T03:54:57.842Z,51.23
2022-08-17T03:57:26.182Z,50.93
2022-08-17T03:59:54.455Z,51.30
2022-08-17T04:02:30.544Z,51.29
2022-08-17T04:04:58.734Z,50.85
2022-08-17T04:07:30.319Z,50.89
2022-08-17T04:09:58.065Z,50.88
2022-08-17T04:12:31.015Z,51.35
2022-08-17T04:14:59.243Z,51.35
2022-08-17T04:17:29.152Z,51.87
2022-08-17T04:19:57.342Z,51.30
2022-08-17T04:22:31.882Z,51.11
2022-08-17T04:25:19.326Z,51.44
2022-08-17T04:27:46.393Z,51.10
2022-08-17T04:30:13.973Z,51.34
2022-08-17T04:33:10.963Z,51.57
2022-08-17T04:35:49.977Z,51.60
2022-08-17T04:38:21.837Z,51.56
2022-08-17T04:41:08.010Z,51.73
2022-08-17T04:43:36.666Z,51.85
2022-08-17T04:46:19.941Z,52.05
2022-08-17T04:48:52.882Z,52.04
2022-08-17T04:51:32.397Z,52.58
2022-08-17T04:54:07.744Z,52.18
2022-08-17T04:56:36.804Z,51.89
2022-08-17T04:59:18.007Z,52.03
2022-08-17T05:01:48.179Z,52.74
2022-08-17T05:04:33.990Z,52.31
2022-08-17T05:07:04.162Z,51.92
2022-08-17T05:09:31.641Z,52.08
2022-08-17T05:12:02.510Z,52.20
2022-08-17T05:14:33.062Z,52.24
2022-08-17T05:17:01.563Z,52.77
2022-08-17T05:19:32.100Z,52.28
2022-08-17T05:21:59.126Z,52.31
2022-08-17T05:24:38.335Z,52.28
2022-08-17T05:27:09.915Z,52.37
2022-08-17T05:29:42.302Z,52.67
2022-08-17T05:32:38.550Z,53.28
2022-08-17T05:35:02.000Z,53.05
2022-08-17T05:37:29.046Z,53.10
2022-08-17T05:39:56.626Z,53.17
2022-08-17T05:42:24.173Z,52.72
2022-08-17T05:44:51.214Z,52.91
2022-08-17T05:47:18.902Z,53.13
2022-08-17T05:49:49.074Z,52.86
2022-08-17T05:52:40.300Z,52.97
2022-08-17T05:55:16.095Z,53.32
2022-08-17T05:58:00.217Z,53.21
2022-08-17T06:00:42.175Z,53.09
2022-08-17T06:03:46.823Z,53.31
2022-08-17T06:06:35.398Z,52.77
2022-08-17T06:09:40.988Z,53.24
2022-08-17T06:12:42.031Z,52.59
2022-08-17T06:15:50.116Z,52.77
2022-08-17T06:18:19.298Z,52.73
2022-08-17T06:20:54.698Z,52.24
2022-08-17T06:23:40.400Z,51.93
2022-08-17T06:26:20.678Z,51.52
2022-08-17T06:29:18.647Z,51.36
2022-08-17T06:31:46.781Z,51.12
2022-08-17T06:34:14.083Z,50.90
2022-08-17T06:37:34.210Z,50.44
2022-08-17T06:40:45.471Z,50.18
2022-08-17T06:43:40.165Z,49.72
2022-08-17T06:46:15.401Z,49.48
2022-08-17T06:49:09.053Z,49.00
2022-08-17T06:51:42.066Z,48.96
2022-08-17T06:54:39.288Z,49.17
2022-08-17T06:57:18.154Z,48.90
2022-08-17T07:00:08.250Z,48.75
2022-08-17T07:03:03.019Z,48.79
2022-08-17T07:05:49.663Z,48.69
2022-08-17T07:08:35.010Z,48.20
2022-08-17T07:11:13.465Z,48.06
2022-08-17T07:14:04.734Z,48.01
2022-08-17T07:17:01.963Z,47.80
2022-08-17T07:19:33.853Z,47.39
2022-08-17T07:22:57.470Z,47.28
2022-08-17T07:25:27.497Z,47.07
2022-08-17T07:28:00.289Z,47.08
2022-08-17T07:30:31.269Z,46.64
2022-08-17T07:33:20.276Z,46.91
2022-08-17T07:35:49.991Z,46.71
2022-08-17T07:38:26.876Z,46.63
2022-08-17T07:40:58.145Z,46.64
2022-08-17T07:43:35.218Z,46.15
2022-08-17T07:46:30.561Z,46.16
2022-08-17T07:49:08.021Z,45.68
2022-08-17T07:51:44.051Z,46.07
2022-08-17T07:54:23.238Z,45.78
2022-08-17T07:57:08.866Z,45.52
2022-08-17T07:59:40.761Z,45.44
2022-08-17T08:02:22.722Z,45.45
2022-08-17T08:05:06.798Z,45.50
2022-08-17T08:08:14.546Z,44.87
2022-08-17T08:10:45.221Z,44.87
2022-08-17T08:13:20.478Z,44.61
2022-08-17T08:16:17.702Z,44.45
2022-08-17T08:18:55.755Z,44.36
2022-08-17T08:21:44.160Z,44.09
2022-08-17T08:24:45.879Z,44.14
2022-08-17T08:27:44.217Z,44.05
2022-08-17T08:30:24.112Z,43.83
2022-08-17T08:33:38.129Z,43.66
2022-08-17T08:37:02.052Z,43.25
2022-08-17T08:39:43.587Z,43.12
2022-08-17T08:42:32.267Z,42.89
2022-08-17T08:45:09.559Z,42.39
2022-08-17T08:47:55.294Z,42.50
2022-08-17T08:50:46.822Z,42.23
2022-08-17T08:53:21.284Z,42.38
2022-08-17T08:55:56.430Z,42.07
2022-08-17T08:58:52.227Z,42.45
2022-08-17T09:01:55.008Z,42.23
2022-08-17T09:05:14.219Z,41.54
2022-08-17T09:08:19.297Z,41.04
2022-08-17T09:11:09.391Z,41.37
2022-08-17T09:13:56.800Z,40.95
2022-08-17T09:16:36.091Z,40.75
2022-08-17T09:19:11.892Z,40.48
2022-08-17T09:21:56.932Z,39.74
2022-08-17T09:24:46.174Z,39.45
2022-08-17T09:27:28.062Z,38.96
2022-08-17T09:30:06.801Z,38.88
2022-08-17T09:32:49.909Z,38.32
2022-08-17T09:35:48.008Z,37.89
2022-08-17T09:38:35.116Z,38.18
2022-08-17T09:41:27.275Z,37.96
2022-08-17T09:44:23.125Z,37.30
2022-08-17T09:47:06.260Z,37.59
2022-08-17T09:49:45.665Z,37.92
2022-08-17T09:52:27.257Z,37.21
2022-08-17T09:54:57.701Z,36.76
2022-08-17T09:57:43.005Z,37.30
2022-08-17T10:00:29.051Z,36.91
2022-08-17T10:03:09.660Z,36.75
2022-08-17T10:05:57.183Z,36.83
2022-08-17T10:08:28.245Z,36.13
2022-08-17T10:11:14.903Z,36.18
2022-08-17T10:13:59.524Z,36.36
2022-08-17T10:16:55.907Z,36.63
2022-08-17T10:19:38.877Z,35.35
2022-08-17T10:22:45.688Z,35.47
2022-08-17T10:25:54.027Z,34.78
2022-08-17T10:28:30.547Z,34.98
2022-08-17T10:31:34.236Z,34.46
2022-08-17T10:34:21.242Z,34.68
2022-08-17T10:37:25.227Z,34.60
2022-08-17T10:40:27.768Z,34.29
2022-08-17T10:43:21.313Z,34.17
2022-08-17T10:46:30.079Z,32.44
2022-08-17T10:49:17.462Z,32.56
2022-08-17T10:51:48.042Z,33.28
2022-08-17T10:54:49.093Z,33.01
2022-08-17T10:57:33.919Z,33.53
2022-08-17T11:00:39.569Z,33.24
2022-08-17T11:03:21.015Z,33.50
2022-08-17T11:06:34.256Z,32.79
2022-08-17T11:09:20.008Z,32.61
2022-08-17T11:12:16.001Z,32.76
2022-08-17T11:14:58.207Z,32.58
2022-08-17T11:17:57.723Z,32.69
2022-08-17T11:21:25.175Z,32.88
2022-08-17T11:24:32.939Z,32.11
2022-08-17T11:27:23.678Z,32.46
2022-08-17T11:30:02.716Z,31.82
2022-08-17T11:32:47.755Z,31.85
2022-08-17T11:35:21.989Z,32.09
2022-08-17T11:38:13.544Z,32.01
2022-08-17T11:41:14.071Z,31.71
2022-08-17T11:44:03.795Z,31.46
2022-08-17T11:47:15.278Z,31.16
2022-08-17T11:50:19.073Z,30.46
2022-08-17T11:52:49.498Z,30.20
2022-08-17T11:55:39.658Z,30.31
2022-08-17T11:58:41.664Z,30.50
2022-08-17T12:01:24.301Z,30.30
2022-08-17T12:03:57.747Z,30.61
2022-08-17T12:06:34.870Z,30.34
2022-08-17T12:09:13.810Z,30.21
2022-08-17T12:12:12.799Z,30.25
2022-08-17T12:15:09.486Z,29.82
2022-08-17T12:17:41.550Z,30.03
2022-08-17T12:20:27.943Z,30.20
2022-08-17T12:23:05.271Z,30.18
2022-08-17T12:26:05.267Z,30.46
2022-08-17T12:28:38.943Z,30.00
2022-08-17T12:31:45.909Z,30.24
2022-08-17T12:34:27.092Z,28.99
2022-08-17T12:37:11.070Z,28.34
2022-08-17T12:39:39.357Z,27.71
2022-08-17T12:42:23.697Z,27.03
2022-08-17T12:44:50.981Z,27.14
2022-08-17T12:47:22.642Z,26.70
2022-08-17T12:49:54.021Z,26.63
2022-08-17T12:52:24.591Z,25.97
2022-08-17T12:55:06.185Z,24.75
2022-08-17T12:57:46.634Z,23.85
2022-08-17T13:00:32.331Z,23.26
2022-08-17T13:03:09.642Z,23.42
2022-08-17T13:05:48.609Z,21.25
2022-08-17T13:08:38.034Z,20.86
2022-08-17T13:11:19.713Z,19.98
2022-08-17T13:13:54.724Z,19.85
2022-08-17T13:16:29.696Z,19.37
2022-08-17T13:19:40.475Z,19.69
2022-08-17T13:22:15.049Z,18.32
2022-08-17T13:25:00.700Z,17.82
2022-08-17T13:27:29.528Z,17.15
2022-08-17T13:30:07.965Z,17.63
2022-08-17T13:32:43.985Z,16.53
2022-08-17T13:35:41.003Z,17.00
2022-08-17T13:38:14.762Z,16.67
2022-08-17T13:40:50.143Z,17.54
2022-08-17T13:43:44.758Z,16.66
2022-08-17T13:46:26.985Z,15.33
2022-08-17T13:49:05.832Z,14.74
2022-08-17T13:51:44.506Z,15.09
2022-08-17T13:54:31.426Z,15.73
2022-08-17T13:57:01.360Z,15.40
2022-08-17T13:59:54.829Z,15.47
2022-08-17T14:02:28.456Z,15.75
2022-08-17T14:04:59.484Z,15.36
2022-08-17T14:07:36.103Z,14.59
2022-08-17T14:10:06.355Z,14.58
2022-08-17T14:12:35.584Z,14.20
2022-08-17T14:15:03.013Z,13.52
2022-08-17T14:17:36.329Z,13.73
2022-08-17T14:20:12.321Z,13.36
2022-08-17T14:22:44.950Z,13.53
2022-08-17T14:25:26.108Z,13.63
2022-08-17T14:27:54.255Z,13.28
2022-08-17T14:30:29.947Z,12.70
2022-08-17T14:32:58.944Z,13.12
2022-08-17T14:35:28.114Z,12.87
2022-08-17T14:37:56.148Z,12.73
2022-08-17T14:40:26.949Z,12.22
2022-08-17T14:42:56.933Z,12.37
2022-08-17T14:45:29.895Z,12.75
2022-08-17T14:48:04.770Z,12.98
2022-08-17T14:50:35.400Z,12.99
2022-08-17T14:53:05.695Z,12.98
2022-08-17T14:55:36.740Z,12.97
2022-08-17T14:58:04.151Z,13.04
2022-08-17T15:00:32.171Z,12.99
2022-08-17T15:03:01.471Z,12.47
2022-08-17T15:05:34.450Z,12.58
2022-08-17T15:08:03.473Z,12.50
2022-08-17T15:10:31.493Z,12.47
2022-08-17T15:12:59.857Z,12.30
2022-08-17T15:15:28.047Z,12.07
2022-08-17T15:17:55.612Z,12.26
2022-08-17T15:20:28.736Z,11.84
2022-08-17T15:22:58.813Z,12.06
2022-08-17T15:25:34.870Z,12.04
2022-08-17T15:28:02.453Z,12.13
2022-08-17T15:30:29.883Z,12.13
2022-08-17T15:32:58.853Z,12.13
2022-08-17T15:35:30.449Z,12.18
2022-08-17T15:38:10.713Z,11.54
2022-08-17T15:40:47.457Z,12.00
2022-08-17T15:43:27.679Z,11.79
2022-08-17T15:46:10.461Z,11.72
2022-08-17T15:48:41.950Z,11.34
2022-08-17T15:51:24.517Z,11.65
2022-08-17T15:53:54.785Z,11.41
2022-08-17T15:56:22.719Z,11.90
2022-08-17T15:58:50.610Z,11.87
2022-08-17T16:01:46.562Z,11.42
2022-08-17T16:04:26.845Z,11.81
2022-08-17T16:06:58.089Z,12.09
2022-08-17T16:09:25.075Z,12.01
2022-08-17T16:11:55.256Z,12.10
2022-08-17T16:14:24.487Z,11.71
2022-08-17T16:16:59.125Z,11.93
2022-08-17T16:19:26.215Z,12.40
2022-08-17T16:21:53.441Z,12.64
2022-08-17T16:24:20.455Z,12.86
2022-08-17T16:26:47.460Z,13.43
2022-08-17T16:29:15.934Z,14.19
2022-08-17T16:31:43.347Z,13.54
2022-08-17T16:34:18.046Z,14.11
2022-08-17T16:36:55.598Z,14.25
2022-08-17T16:39:29.350Z,14.51
2022-08-17T16:41:57.420Z,14.12
2022-08-17T16:44:25.961Z,14.46
2022-08-17T16:46:53.747Z,15.20
2022-08-17T16:49:35.992Z,14.79
2022-08-17T16:52:10.810Z,15.37
2022-08-17T16:54:44.360Z,14.94
2022-08-17T16:57:17.567Z,15.23
2022-08-17T16:59:50.197Z,15.25
2022-08-17T17:02:47.172Z,16.10
2022-08-17T17:05:48.481Z,16.22
2022-08-17T17:08:49.320Z,17.00
2022-08-17T17:11:28.364Z,16.51
2022-08-17T17:13:59.538Z,17.84
2022-08-17T17:16:37.648Z,18.42
2022-08-17T17:19:36.252Z,18.85
2022-08-17T17:22:30.988Z,20.03
2022-08-17T17:25:16.074Z,19.76
2022-08-17T17:28:07.592Z,20.06
2022-08-17T17:31:08.765Z,21.01
2022-08-17T17:33:47.805Z,20.82
2022-08-17T17:36:43.445Z,20.63
2022-08-17T17:39:41.375Z,20.69
2022-08-17T17:42:22.869Z,21.06
2022-08-17T17:45:09.058Z,21.60
2022-08-17T17:47:37.536Z,21.95
2022-08-17T17:50:06.977Z,22.70
2022-08-17T17:52:55.172Z,22.60
2022-08-17T17:55:51.748Z,22.80
2022-08-17T17:58:55.781Z,23.56
2022-08-17T18:01:30.803Z,24.75
2022-08-17T18:04:28.864Z,24.42
2022-08-17T18:07:28.406Z,24.39
2022-08-17T18:10:30.544Z,24.68
2022-08-17T18:13:12.283Z,25.04
2022-08-17T18:15:51.117Z,24.84
2022-08-17T18:18:18.079Z,24.99
2022-08-17T18:20:55.798Z,25.28
2022-08-17T18:23:28.221Z,25.67
2022-08-17T18:25:56.867Z,25.58
2022-08-17T18:28:38.920Z,26.08
2022-08-17T18:31:18.597Z,25.52
2022-08-17T18:33:50.576Z,25.93
2022-08-17T18:36:36.608Z,25.94
2022-08-17T18:39:21.454Z,26.40
2022-08-17T18:41:52.573Z,27.11
2022-08-17T18:44:32.761Z,27.68
2022-08-17T18:47:18.590Z,27.14
2022-08-17T18:49:53.583Z,27.79
2022-08-17T18:52:31.447Z,27.43
2022-08-17T18:55:15.816Z,28.30
2022-08-17T18:57:48.963Z,28.38
2022-08-17T19:00:40.205Z,28.58
2022-08-17T19:03:25.121Z,27.96
2022-08-17T19:06:21.492Z,28.47
2022-08-17T19:08:48.870Z,28.46
2022-08-17T19:11:34.348Z,28.50
2022-08-17T19:14:10.624Z,29.28
2022-08-17T19:16:49.350Z,28.99
2022-08-17T19:19:24.225Z,29.32
2022-08-17T19:21:58.995Z,29.03
2022-08-17T19:24:32.543Z,29.77
2022-08-17T19:27:17.965Z,29.87
2022-08-17T19:30:08.580Z,29.66
2022-08-17T19:32:36.525Z,29.45
2022-08-17T19:35:07.411Z,29.79
2022-08-17T19:37:53.754Z,30.19
2022-08-17T19:40:55.107Z,30.19
2022-08-17T19:43:22.206Z,30.03
2022-08-17T19:46:06.096Z,30.57
2022-08-17T19:49:11.885Z,30.60
2022-08-17T19:51:44.961Z,31.14
2022-08-17T19:54:24.907Z,30.66
2022-08-17T19:57:12.516Z,31.00
2022-08-17T19:59:57.760Z,30.75
2022-08-17T20:02:33.913Z,30.84
2022-08-17T20:05:26.936Z,31.08
2022-08-17T20:08:13.543Z,31.33
2022-08-17T20:10:59.657Z,31.71
2022-08-17T20:13:49.140Z,31.66
2022-08-17T20:16:19.353Z,31.79
2022-08-17T20:19:06.867Z,31.96
2022-08-17T20:21:44.233Z,32.43
2022-08-17T20:24:28.965Z,32.50
2022-08-17T20:27:05.182Z,32.46
2022-08-17T20:29:55.288Z,32.32
2022-08-17T20:32:30.075Z,32.92
2022-08-17T20:35:27.609Z,32.36
2022-08-17T20:38:36.187Z,32.62
2022-08-17T20:41:03.961Z,33.03
2022-08-17T20:43:33.927Z,32.96
2022-08-17T20:46:46.409Z,33.05
2022-08-17T20:49:44.935Z,33.26
2022-08-17T20:52:35.056Z,33.66
2022-08-17T20:55:04.441Z,33.25
2022-08-17T20:57:31.602Z,33.25
2022-08-17T21:00:15.366Z,33.54
2022-08-17T21:02:46.647Z,33.36
2022-08-17T21:05:38.961Z,33.39
2022-08-17T21:08:18.780Z,33.95
2022-08-17T21:10:47.196Z,33.63
2022-08-17T21:13:15.803Z,34.04
2022-08-17T21:15:53.102Z,34.20
2022-08-17T21:18:52.861Z,33.84
2022-08-17T21:21:43.089Z,34.36
2022-08-17T21:25:03.274Z,34.17
2022-08-17T21:27:39.565Z,34.55
2022-08-17T21:30:09.956Z,34.19
2022-08-17T21:32:41.903Z,34.33
2022-08-17T21:35:28.431Z,34.58
2022-08-17T21:38:03.681Z,34.98
2022-08-17T21:40:33.784Z,35.05
2022-08-17T21:43:24.217Z,34.82
2022-08-17T21:46:12.537Z,35.75
2022-08-17T21:48:48.291Z,35.48
2022-08-17T21:51:22.951Z,35.43
2022-08-17T21:53:57.316Z,35.67
2022-08-17T21:56:39.482Z,35.72
2022-08-17T21:59:38.406Z,35.65
2022-08-17T22:02:09.992Z,35.82
2022-08-17T22:04:41.493Z,35.95
2022-08-17T22:07:14.149Z,36.49
2022-08-17T22:09:50.003Z,36.22
2022-08-17T22:12:24.217Z,35.78
2022-08-17T22:15:04.332Z,36.04
2022-08-17T22:17:41.280Z,36.12
2022-08-17T22:20:15.888Z,36.61
2022-08-17T22:23:04.377Z,36.42
2022-08-17T22:25:36.115Z,36.15
2022-08-17T22:28:11.024Z,36.44
2022-08-17T22:30:46.943Z,36.44
2022-08-17T22:33:32.792Z,36.67
2022-08-17T22:36:28.946Z,36.53
2022-08-17T22:39:10.207Z,36.26
2022-08-17T22:41:51.336Z,36.72
2022-08-17T22:44:31.915Z,37.04
2022-08-17T22:47:19.452Z,37.06
2022-08-17T22:49:59.547Z,36.95
2022-08-17T22:52:58.745Z,37.33
2022-08-17T22:55:45.207Z,37.42
2022-08-17T22:58:38.968Z,37.35
2022-08-17T23:01:32.457Z,38.08
2022-08-17T23:04:04.724Z,38.00
2022-08-17T23:06:34.192Z,37.97
2022-08-17T23:09:04.645Z,37.88
2022-08-17T23:11:50.325Z,38.47
2022-08-17T23:14:20.416Z,38.09
2022-08-17T23:16:50.520Z,38.46
2022-08-17T23:19:21.035Z,38.41
2022-08-17T23:21:50.418Z,38.21
2022-08-17T23:24:28.595Z,38.60
2022-08-17T23:26:58.252Z,38.28
2022-08-17T23:29:29.391Z,38.40
2022-08-17T23:32:00.010Z,38.79
2022-08-17T23:34:28.399Z,38.41
2022-08-17T23:36:56.823Z,38.74
2022-08-17T23:39:28.055Z,38.64
2022-08-17T23:42:00.844Z,39.00
2022-08-17T23:44:28.975Z,38.80
2022-08-17T23:46:56.756Z,39.04
2022-08-17T23:49:25.025Z,38.82
2022-08-17T23:51:54.832Z,39.01
2022-08-17T23:54:43.977Z,39.56
2022-08-17T23:57:18.016Z,39.48
2022-08-17T23:59:46.070Z,39.48
